sensor_id;sensor_type;location;lat;lon;timestamp;pressure;altitude;pressure_sealevel;temperature;humidity
62710;BME280;48770;51.624;5.886;2023-02-14T00:00:41;103305.00;;;19.12;39.25
62710;BME280;48770;51.624;5.886;2023-02-14T00:03:07;103316.94;;;19.12;39.21
62710;BME280;48770;51.624;5.886;2023-02-14T00:05:32;103311.66;;;19.10;39.29
62710;BME280;48770;51.624;5.886;2023-02-14T00:07:57;103310.84;;;19.10;39.51
62710;BME280;48770;51.624;5.886;2023-02-14T00:10:23;103324.69;;;19.10;39.18
62710;BME280;48770;51.624;5.886;2023-02-14T00:12:48;103315.56;;;19.09;39.45
62710;BME280;48770;51.624;5.886;2023-02-14T00:15:13;103316.38;;;19.10;39.19
62710;BME280;48770;51.624;5.886;2023-02-14T00:17:50;103303.63;;;19.09;39.36
62710;BME280;48770;51.624;5.886;2023-02-14T00:20:15;103308.34;;;19.08;39.31
62710;BME280;48770;51.624;5.886;2023-02-14T00:22:41;103304.75;;;19.08;39.52
62710;BME280;48770;51.624;5.886;2023-02-14T00:25:07;103301.13;;;19.07;39.54
62710;BME280;48770;51.624;5.886;2023-02-14T00:27:32;103298.38;;;19.07;39.53
62710;BME280;48770;51.624;5.886;2023-02-14T00:29:58;103294.75;;;19.07;39.24
62710;BME280;48770;51.624;5.886;2023-02-14T00:32:27;103302.25;;;19.06;39.31
62710;BME280;48770;51.624;5.886;2023-02-14T00:34:52;103296.72;;;19.06;39.32
62710;BME280;48770;51.624;5.886;2023-02-14T00:37:18;103298.66;;;19.06;39.11
62710;BME280;48770;51.624;5.886;2023-02-14T00:39:43;103294.22;;;19.05;39.13
62710;BME280;48770;51.624;5.886;2023-02-14T00:42:08;103291.44;;;19.05;39.15
62710;BME280;48770;51.624;5.886;2023-02-14T00:44:33;103282.56;;;19.03;39.34
62710;BME280;48770;51.624;5.886;2023-02-14T00:46:59;103290.63;;;19.04;39.27
62710;BME280;48770;51.624;5.886;2023-02-14T00:49:24;103290.91;;;19.03;39.10
62710;BME280;48770;51.624;5.886;2023-02-14T00:51:49;103299.22;;;19.03;39.19
62710;BME280;48770;51.624;5.886;2023-02-14T00:54:15;103297.56;;;19.02;39.14
62710;BME280;48770;51.624;5.886;2023-02-14T00:56:40;103297.56;;;19.02;39.19
62710;BME280;48770;51.624;5.886;2023-02-14T00:59:05;103295.06;;;19.00;39.24
62710;BME280;48770;51.624;5.886;2023-02-14T01:01:31;103294.22;;;19.00;39.23
62710;BME280;48770;51.624;5.886;2023-02-14T01:03:56;103303.38;;;19.00;38.95
62710;BME280;48770;51.624;5.886;2023-02-14T01:06:23;103303.09;;;19.02;39.29
62710;BME280;48770;51.624;5.886;2023-02-14T01:08:48;103308.94;;;19.00;38.98
62710;BME280;48770;51.624;5.886;2023-02-14T01:11:17;103305.31;;;19.00;39.15
62710;BME280;48770;51.624;5.886;2023-02-14T01:13:43;103301.69;;;18.99;39.02
62710;BME280;48770;51.624;5.886;2023-02-14T01:16:11;103301.69;;;18.99;39.07
62710;BME280;48770;51.624;5.886;2023-02-14T01:18:38;103303.63;;;18.99;39.18
62710;BME280;48770;51.624;5.886;2023-02-14T01:23:35;103301.13;;;18.97;38.88
62710;BME280;48770;51.624;5.886;2023-02-14T01:26:05;103305.84;;;18.97;38.95
62710;BME280;48770;51.624;5.886;2023-02-14T01:28:30;103305.03;;;18.96;39.15
62710;BME280;48770;51.624;5.886;2023-02-14T01:30:55;103298.66;;;18.96;39.33
62710;BME280;48770;51.624;5.886;2023-02-14T01:33:21;103309.75;;;18.96;39.12
62710;BME280;48770;51.624;5.886;2023-02-14T01:35:46;103307.25;;;18.94;39.10
62710;BME280;48770;51.624;5.886;2023-02-14T01:38:11;103303.66;;;18.94;39.13
62710;BME280;48770;51.624;5.886;2023-02-14T01:40:43;103311.97;;;18.94;39.08
62710;BME280;48770;51.624;5.886;2023-02-14T01:43:14;103306.41;;;18.94;39.10
62710;BME280;48770;51.624;5.886;2023-02-14T01:45:39;103304.75;;;18.93;38.87
62710;BME280;48770;51.624;5.886;2023-02-14T01:48:05;103307.25;;;18.94;39.02
62710;BME280;48770;51.624;5.886;2023-02-14T01:50:34;103306.41;;;18.94;39.10
62710;BME280;48770;51.624;5.886;2023-02-14T01:53:06;103292.84;;;18.92;39.07
62710;BME280;48770;51.624;5.886;2023-02-14T01:55:36;103295.88;;;18.91;39.26
62710;BME280;48770;51.624;5.886;2023-02-14T01:58:05;103291.19;;;18.91;38.91
62710;BME280;48770;51.624;5.886;2023-02-14T02:00:32;103285.91;;;18.90;39.01
62710;BME280;48770;51.624;5.886;2023-02-14T02:03:18;103286.19;;;18.88;39.20
62710;BME280;48770;51.624;5.886;2023-02-14T02:05:47;103289.78;;;18.89;38.77
62710;BME280;48770;51.624;5.886;2023-02-14T02:08:14;103292.56;;;18.89;38.83
62710;BME280;48770;51.624;5.886;2023-02-14T02:10:40;103291.75;;;18.88;39.09
62710;BME280;48770;51.624;5.886;2023-02-14T02:13:07;103290.91;;;18.88;39.03
62710;BME280;48770;51.624;5.886;2023-02-14T02:15:41;103283.72;;;18.87;39.09
62710;BME280;48770;51.624;5.886;2023-02-14T02:21:07;103287.59;;;18.86;38.94
62710;BME280;48770;51.624;5.886;2023-02-14T02:37:11;103267.38;;;18.80;39.01
62710;BME280;48770;51.624;5.886;2023-02-14T02:42:21;103265.44;;;18.81;39.08
62710;BME280;48770;51.624;5.886;2023-02-14T02:45:31;103266.53;;;18.79;39.06
62710;BME280;48770;51.624;5.886;2023-02-14T02:55:42;103261.56;;;18.76;39.15
62710;BME280;48770;51.624;5.886;2023-02-14T02:59:00;103259.59;;;18.72;38.91
62710;BME280;48770;51.624;5.886;2023-02-14T03:01:32;103263.78;;;18.74;38.83
62710;BME280;48770;51.624;5.886;2023-02-14T03:04:03;103257.97;;;18.76;38.82
62710;BME280;48770;51.624;5.886;2023-02-14T03:06:49;103264.63;;;18.75;39.02
62710;BME280;48770;51.624;5.886;2023-02-14T03:14:39;103271.25;;;18.74;38.96
62710;BME280;48770;51.624;5.886;2023-02-14T03:22:50;103262.66;;;18.70;38.72
62710;BME280;48770;51.624;5.886;2023-02-14T03:25:31;103269.84;;;18.71;38.81
62710;BME280;48770;51.624;5.886;2023-02-14T03:30:56;103272.63;;;18.66;38.85
62710;BME280;48770;51.624;5.886;2023-02-14T03:33:27;103276.78;;;18.69;38.95
62710;BME280;48770;51.624;5.886;2023-02-14T03:36:05;103269.59;;;18.68;39.11
62710;BME280;48770;51.624;5.886;2023-02-14T03:38:47;103264.88;;;18.68;39.07
62710;BME280;48770;51.624;5.886;2023-02-14T03:41:18;103274.84;;;18.69;38.98
62710;BME280;48770;51.624;5.886;2023-02-14T03:43:48;103278.44;;;18.70;38.75
62710;BME280;48770;51.624;5.886;2023-02-14T03:46:19;103273.72;;;18.70;38.89
62710;BME280;48770;51.624;5.886;2023-02-14T03:48:50;103267.38;;;18.70;38.68
62710;BME280;48770;51.624;5.886;2023-02-14T03:51:19;103272.91;;;18.70;38.75
62710;BME280;48770;51.624;5.886;2023-02-14T03:53:49;103267.38;;;18.70;38.71
62710;BME280;48770;51.624;5.886;2023-02-14T03:58:50;103264.59;;;18.70;38.83
62710;BME280;48770;51.624;5.886;2023-02-14T04:01:23;103266.53;;;18.69;38.56
62710;BME280;48770;51.624;5.886;2023-02-14T04:03:51;103260.44;;;18.67;38.70
62710;BME280;48770;51.624;5.886;2023-02-14T04:06:19;103265.69;;;18.69;38.78
62710;BME280;48770;51.624;5.886;2023-02-14T04:08:45;103271.25;;;18.69;38.57
62710;BME280;48770;51.624;5.886;2023-02-14T04:11:10;103264.03;;;18.68;38.60
62710;BME280;48770;51.624;5.886;2023-02-14T04:13:37;103267.66;;;18.68;38.55
62710;BME280;48770;51.624;5.886;2023-02-14T04:16:03;103261.56;;;18.66;38.66
62710;BME280;48770;51.624;5.886;2023-02-14T04:18:28;103267.66;;;18.68;38.65
62710;BME280;48770;51.624;5.886;2023-02-14T04:21:12;103262.94;;;18.64;38.62
62710;BME280;48770;51.624;5.886;2023-02-14T04:23:37;103273.19;;;18.63;38.74
62710;BME280;48770;51.624;5.886;2023-02-14T04:26:02;103279.56;;;18.64;38.84
62710;BME280;48770;51.624;5.886;2023-02-14T04:28:29;103272.91;;;18.65;38.72
62710;BME280;48770;51.624;5.886;2023-02-14T04:30:54;103277.63;;;18.64;38.75
62710;BME280;48770;51.624;5.886;2023-02-14T04:33:20;103283.16;;;18.64;38.71
62710;BME280;48770;51.624;5.886;2023-02-14T04:35:47;103287.59;;;18.65;38.78
62710;BME280;48770;51.624;5.886;2023-02-14T04:38:12;103279.28;;;18.65;38.59
62710;BME280;48770;51.624;5.886;2023-02-14T04:40:37;103270.97;;;18.65;38.55
62710;BME280;48770;51.624;5.886;2023-02-14T04:43:03;103268.50;;;18.64;38.80
62710;BME280;48770;51.624;5.886;2023-02-14T04:45:29;103265.72;;;18.64;38.67
62710;BME280;48770;51.624;5.886;2023-02-14T04:47:54;103264.88;;;18.63;38.68
62710;BME280;48770;51.624;5.886;2023-02-14T04:50:20;103257.41;;;18.64;38.54
62710;BME280;48770;51.624;5.886;2023-02-14T04:52:48;103257.13;;;18.65;38.46
62710;BME280;48770;51.624;5.886;2023-02-14T04:55:13;103259.06;;;18.65;38.41
62710;BME280;48770;51.624;5.886;2023-02-14T04:57:38;103255.47;;;18.64;38.39
62710;BME280;48770;51.624;5.886;2023-02-14T05:00:05;103255.47;;;18.64;38.48
62710;BME280;48770;51.624;5.886;2023-02-14T05:02:30;103251.03;;;18.63;38.53
62710;BME280;48770;51.624;5.886;2023-02-14T05:04:56;103250.19;;;18.63;38.67
62710;BME280;48770;51.624;5.886;2023-02-14T05:07:21;103238.28;;;18.62;38.83
62710;BME280;48770;51.624;5.886;2023-02-14T05:09:46;103245.50;;;18.63;38.59
62710;BME280;48770;51.624;5.886;2023-02-14T05:12:12;103239.94;;;18.63;38.56
62710;BME280;48770;51.624;5.886;2023-02-14T05:14:37;103238.00;;;18.64;38.28
62710;BME280;48770;51.624;5.886;2023-02-14T05:17:02;103235.22;;;18.64;38.66
62710;BME280;48770;51.624;5.886;2023-02-14T05:19:28;103231.88;;;18.62;38.52
62710;BME280;48770;51.624;5.886;2023-02-14T05:21:53;103239.38;;;18.61;38.47
62710;BME280;48770;51.624;5.886;2023-02-14T05:24:18;103228.28;;;18.61;38.68
62710;BME280;48770;51.624;5.886;2023-02-14T05:26:44;103231.06;;;18.61;38.53
62710;BME280;48770;51.624;5.886;2023-02-14T05:29:09;103231.06;;;18.61;38.58
62710;BME280;48770;51.624;5.886;2023-02-14T05:31:34;103236.34;;;18.63;38.34
62710;BME280;48770;51.624;5.886;2023-02-14T05:34:00;103241.06;;;18.62;38.31
62710;BME280;48770;51.624;5.886;2023-02-14T05:36:26;103239.38;;;18.61;38.40
62710;BME280;48770;51.624;5.886;2023-02-14T05:38:51;103238.81;;;18.59;38.54
62710;BME280;48770;51.624;5.886;2023-02-14T05:41:16;103244.34;;;18.59;38.53
62710;BME280;48770;51.624;5.886;2023-02-14T05:43:42;103243.53;;;18.59;38.36
62710;BME280;48770;51.624;5.886;2023-02-14T05:46:07;103243.53;;;18.59;38.34
62710;BME280;48770;51.624;5.886;2023-02-14T05:48:33;103246.00;;;18.60;38.20
62710;BME280;48770;51.624;5.886;2023-02-14T05:51:06;103242.13;;;18.61;38.33
62710;BME280;48770;51.624;5.886;2023-02-14T05:53:32;103237.97;;;18.59;38.42
62710;BME280;48770;51.624;5.886;2023-02-14T05:55:57;103236.31;;;18.58;38.49
62710;BME280;48770;51.624;5.886;2023-02-14T05:58:22;103234.66;;;18.57;38.62
62710;BME280;48770;51.624;5.886;2023-02-14T06:00:48;103241.31;;;18.56;38.41
62710;BME280;48770;51.624;5.886;2023-02-14T06:03:13;103236.59;;;18.56;38.22
62710;BME280;48770;51.624;5.886;2023-02-14T06:05:39;103244.91;;;18.56;38.27
62710;BME280;48770;51.624;5.886;2023-02-14T06:08:04;103240.22;;;18.57;38.32
62710;BME280;48770;51.624;5.886;2023-02-14T06:10:29;103236.59;;;18.56;38.28
62710;BME280;48770;51.624;5.886;2023-02-14T06:12:55;103239.66;;;18.55;38.59
62710;BME280;48770;51.624;5.886;2023-02-14T06:15:20;103240.47;;;18.55;38.35
62710;BME280;48770;51.624;5.886;2023-02-14T06:17:53;103233.00;;;18.56;38.16
62710;BME280;48770;51.624;5.886;2023-02-14T06:20:20;103241.59;;;18.54;38.39
62710;BME280;48770;51.624;5.886;2023-02-14T06:22:46;103241.59;;;18.54;38.37
62710;BME280;48770;51.624;5.886;2023-02-14T06:25:12;103238.28;;;18.52;38.47
62710;BME280;48770;51.624;5.886;2023-02-14T06:27:37;103242.72;;;18.53;38.20
62710;BME280;48770;51.624;5.886;2023-02-14T06:30:04;103241.88;;;18.53;38.40
62710;BME280;48770;51.624;5.886;2023-02-14T06:32:29;103252.69;;;18.54;38.35
62710;BME280;48770;51.624;5.886;2023-02-14T06:34:55;103249.91;;;18.54;38.36
62710;BME280;48770;51.624;5.886;2023-02-14T06:37:20;103252.13;;;18.52;38.17
62710;BME280;48770;51.624;5.886;2023-02-14T06:39:45;103254.91;;;18.52;38.44
62710;BME280;48770;51.624;5.886;2023-02-14T06:42:11;103250.47;;;18.51;38.30
62710;BME280;48770;51.624;5.886;2023-02-14T06:44:36;103250.47;;;18.51;38.30
62710;BME280;48770;51.624;5.886;2023-02-14T06:47:01;103254.06;;;18.52;38.21
62710;BME280;48770;51.624;5.886;2023-02-14T06:49:27;103261.28;;;18.53;38.39
62710;BME280;48770;51.624;5.886;2023-02-14T06:51:52;103254.06;;;18.52;38.14
62710;BME280;48770;51.624;5.886;2023-02-14T06:54:17;103260.72;;;18.51;38.17
62710;BME280;48770;51.624;5.886;2023-02-14T06:56:43;103261.53;;;18.51;38.13
62710;BME280;48770;51.624;5.886;2023-02-14T06:59:08;103260.72;;;18.51;38.35
62710;BME280;48770;51.624;5.886;2023-02-14T07:01:33;103263.50;;;18.51;38.38
62710;BME280;48770;51.624;5.886;2023-02-14T07:03:59;103263.50;;;18.51;38.19
62710;BME280;48770;51.624;5.886;2023-02-14T07:06:24;103265.44;;;18.50;38.21
62710;BME280;48770;51.624;5.886;2023-02-14T07:08:49;103268.19;;;18.50;38.41
62710;BME280;48770;51.624;5.886;2023-02-14T07:11:15;103266.53;;;18.49;38.53
62710;BME280;48770;51.624;5.886;2023-02-14T07:13:40;103263.19;;;18.47;38.41
62710;BME280;48770;51.624;5.886;2023-02-14T07:16:07;103256.56;;;18.48;38.38
62710;BME280;48770;51.624;5.886;2023-02-14T07:18:33;103264.88;;;18.48;38.33
62710;BME280;48770;51.624;5.886;2023-02-14T07:20:58;103267.66;;;18.48;38.41
62710;BME280;48770;51.624;5.886;2023-02-14T07:23:23;103272.31;;;18.47;38.16
62710;BME280;48770;51.624;5.886;2023-02-14T07:25:49;103272.31;;;18.47;38.13
62710;BME280;48770;51.624;5.886;2023-02-14T07:28:14;103268.72;;;18.47;38.19
62710;BME280;48770;51.624;5.886;2023-02-14T07:30:39;103277.88;;;18.47;38.35
62710;BME280;48770;51.624;5.886;2023-02-14T07:33:05;103278.72;;;18.48;38.20
62710;BME280;48770;51.624;5.886;2023-02-14T07:35:30;103275.97;;;18.48;38.21
62710;BME280;48770;51.624;5.886;2023-02-14T07:37:56;103283.41;;;18.47;38.22
62710;BME280;48770;51.624;5.886;2023-02-14T07:40:21;103283.41;;;18.47;38.13
62710;BME280;48770;51.624;5.886;2023-02-14T07:42:53;103274.25;;;18.47;38.08
62710;BME280;48770;51.624;5.886;2023-02-14T07:45:20;103284.28;;;18.48;38.26
62710;BME280;48770;51.624;5.886;2023-02-14T07:47:50;103281.50;;;18.48;38.20
62710;BME280;48770;51.624;5.886;2023-02-14T07:50:16;103283.16;;;18.49;38.15
62710;BME280;48770;51.624;5.886;2023-02-14T07:52:42;103284.00;;;18.49;38.24
62710;BME280;48770;51.624;5.886;2023-02-14T07:55:08;103278.44;;;18.49;37.91
62710;BME280;48770;51.624;5.886;2023-02-14T07:57:33;103283.16;;;18.49;37.88
62710;BME280;48770;51.624;5.886;2023-02-14T07:59:58;103277.63;;;18.49;37.85
62710;BME280;48770;51.624;5.886;2023-02-14T08:02:24;103281.50;;;18.48;37.98
62710;BME280;48770;51.624;5.886;2023-02-14T08:04:49;103281.50;;;18.48;37.95
62710;BME280;48770;51.624;5.886;2023-02-14T08:07:14;103281.50;;;18.48;37.82
62710;BME280;48770;51.624;5.886;2023-02-14T08:09:40;103268.72;;;18.47;38.00
62710;BME280;48770;51.624;5.886;2023-02-14T08:12:05;103272.59;;;18.46;38.04
62710;BME280;48770;51.624;5.886;2023-02-14T08:14:49;103274.84;;;18.24;38.39
62710;BME280;48770;51.624;5.886;2023-02-14T08:17:14;103274.84;;;18.34;38.67
62710;BME280;48770;51.624;5.886;2023-02-14T08:19:40;103274.81;;;18.39;38.16
62710;BME280;48770;51.624;5.886;2023-02-14T08:22:06;103268.19;;;18.40;38.31
62710;BME280;48770;51.624;5.886;2023-02-14T08:24:31;103266.25;;;18.40;38.05
62710;BME280;48770;51.624;5.886;2023-02-14T08:26:57;103267.91;;;18.41;37.89
62710;BME280;48770;51.624;5.886;2023-02-14T08:29:22;103271.50;;;18.42;38.23
62710;BME280;48770;51.624;5.886;2023-02-14T08:31:48;103267.06;;;18.41;38.23
62710;BME280;48770;51.624;5.886;2023-02-14T08:34:14;103265.97;;;18.42;38.26
62710;BME280;48770;51.624;5.886;2023-02-14T08:36:40;103270.66;;;18.41;38.10
62710;BME280;48770;51.624;5.886;2023-02-14T08:39:05;103263.47;;;18.40;38.03
62710;BME280;48770;51.624;5.886;2023-02-14T08:41:31;103269.00;;;18.40;38.12
62710;BME280;48770;51.624;5.886;2023-02-14T08:43:57;103270.66;;;18.41;38.11
62710;BME280;48770;51.624;5.886;2023-02-14T08:46:23;103272.59;;;18.41;37.97
62710;BME280;48770;51.624;5.886;2023-02-14T08:48:48;103267.34;;;18.39;38.09
62710;BME280;48770;51.624;5.886;2023-02-14T08:51:17;103266.25;;;18.40;38.10
62710;BME280;48770;51.624;5.886;2023-02-14T08:53:43;103274.56;;;18.40;38.05
62710;BME280;48770;51.624;5.886;2023-02-14T08:56:12;103263.75;;;18.39;38.11
62710;BME280;48770;51.624;5.886;2023-02-14T08:58:38;103263.47;;;18.40;38.10
62710;BME280;48770;51.624;5.886;2023-02-14T09:01:11;103266.53;;;18.39;38.32
62710;BME280;48770;51.624;5.886;2023-02-14T09:03:37;103260.44;;;18.37;37.99
62710;BME280;48770;51.624;5.886;2023-02-14T09:06:04;103256.28;;;18.39;38.02
62710;BME280;48770;51.624;5.886;2023-02-14T09:08:29;103262.91;;;18.38;37.85
62710;BME280;48770;51.624;5.886;2023-02-14T09:10:55;103255.44;;;18.39;38.16
62710;BME280;48770;51.624;5.886;2023-02-14T09:13:21;103251.84;;;18.38;38.25
62710;BME280;48770;51.624;5.886;2023-02-14T09:15:46;103247.69;;;18.36;38.11
62710;BME280;48770;51.624;5.886;2023-02-14T09:18:12;103250.19;;;18.37;38.04
62710;BME280;48770;51.624;5.886;2023-02-14T09:20:37;103249.34;;;18.37;38.19
62710;BME280;48770;51.624;5.886;2023-02-14T09:23:02;103246.56;;;18.37;38.08
62710;BME280;48770;51.624;5.886;2023-02-14T09:25:28;103246.84;;;18.35;38.02
62710;BME280;48770;51.624;5.886;2023-02-14T09:27:53;103247.69;;;18.36;38.09
62710;BME280;48770;51.624;5.886;2023-02-14T09:30:18;103246.56;;;18.37;38.28
62710;BME280;48770;51.624;5.886;2023-02-14T09:32:44;103245.47;;;18.38;38.17
62710;BME280;48770;51.624;5.886;2023-02-14T09:35:09;103235.22;;;18.38;38.36
62710;BME280;48770;51.624;5.886;2023-02-14T09:37:34;103247.41;;;18.37;37.83
62710;BME280;48770;51.624;5.886;2023-02-14T09:40:00;103242.41;;;18.39;38.11
62710;BME280;48770;51.624;5.886;2023-02-14T09:42:48;103246.56;;;18.37;38.03
62710;BME280;48770;51.624;5.886;2023-02-14T09:45:22;103249.91;;;18.39;38.04
62710;BME280;48770;51.624;5.886;2023-02-14T09:47:50;103245.19;;;18.39;37.96
62710;BME280;48770;51.624;5.886;2023-02-14T09:52:46;103248.22;;;18.43;37.85
62710;BME280;48770;51.624;5.886;2023-02-14T09:55:14;103237.69;;;18.45;37.86
62710;BME280;48770;51.624;5.886;2023-02-14T09:58:00;103236.59;;;18.46;37.96
62710;BME280;48770;51.624;5.886;2023-02-14T10:00:37;103234.41;;;18.48;38.04
62710;BME280;48770;51.624;5.886;2023-02-14T10:08:50;103230.25;;;18.51;37.81
62710;BME280;48770;51.624;5.886;2023-02-14T10:11:22;103230.78;;;18.53;37.96
62710;BME280;48770;51.624;5.886;2023-02-14T10:14:10;103228.84;;;18.53;38.15
62710;BME280;48770;51.624;5.886;2023-02-14T10:16:58;103221.38;;;18.54;37.93
62710;BME280;48770;51.624;5.886;2023-02-14T10:22:18;103225.25;;;18.58;37.89
62710;BME280;48770;51.624;5.886;2023-02-14T10:24:51;103221.66;;;18.62;37.95
62710;BME280;48770;51.624;5.886;2023-02-14T10:29:50;103218.31;;;18.65;37.64
62710;BME280;48770;51.624;5.886;2023-02-14T10:32:25;103214.44;;;18.66;37.91
62710;BME280;48770;51.624;5.886;2023-02-14T10:34:55;103216.09;;;18.67;37.73
62710;BME280;48770;51.624;5.886;2023-02-14T10:40:25;103227.75;;;18.69;37.57
62710;BME280;48770;51.624;5.886;2023-02-14T10:42:52;103218.88;;;18.67;37.66
62710;BME280;48770;51.624;5.886;2023-02-14T10:48:25;103216.94;;;18.68;37.51
62710;BME280;48770;51.624;5.886;2023-02-14T10:51:11;103217.22;;;18.66;37.83
62710;BME280;48770;51.624;5.886;2023-02-14T10:56:16;103207.50;;;18.69;37.76
62710;BME280;48770;51.624;5.886;2023-02-14T10:58:44;103211.94;;;18.70;37.85
62710;BME280;48770;51.624;5.886;2023-02-14T11:01:13;103203.34;;;18.71;37.54
62710;BME280;48770;51.624;5.886;2023-02-14T11:03:40;103203.06;;;18.73;37.82
62710;BME280;48770;51.624;5.886;2023-02-14T11:06:08;103208.34;;;18.74;37.66
62710;BME280;48770;51.624;5.886;2023-02-14T11:08:36;103204.47;;;18.75;37.73
62710;BME280;48770;51.624;5.886;2023-02-14T11:11:51;103208.06;;;18.71;37.74
62710;BME280;48770;51.624;5.886;2023-02-14T11:14:20;103208.34;;;18.74;37.71
62710;BME280;48770;51.624;5.886;2023-02-14T11:16:46;103202.53;;;18.76;37.74
62710;BME280;48770;51.624;5.886;2023-02-14T11:21:55;103188.94;;;18.79;37.69
62710;BME280;48770;51.624;5.886;2023-02-14T11:26:49;103192.78;;;18.84;37.79
62710;BME280;48770;51.624;5.886;2023-02-14T11:29:26;103181.72;;;18.84;37.79
62710;BME280;48770;51.624;5.886;2023-02-14T11:31:52;103185.03;;;18.86;37.81
62710;BME280;48770;51.624;5.886;2023-02-14T11:34:31;103178.38;;;18.87;37.83
62710;BME280;48770;51.624;5.886;2023-02-14T11:36:58;103183.34;;;18.90;37.53
62710;BME280;48770;51.624;5.886;2023-02-14T11:39:28;103179.47;;;18.91;37.72
62710;BME280;48770;51.624;5.886;2023-02-14T11:41:58;103176.13;;;18.94;37.80
62710;BME280;48770;51.624;5.886;2023-02-14T11:44:27;103171.13;;;18.96;37.84
62710;BME280;48770;51.624;5.886;2023-02-14T11:46:56;103165.00;;;18.99;37.88
62710;BME280;48770;51.624;5.886;2023-02-14T11:49:31;103164.47;;;19.02;37.75
62710;BME280;48770;51.624;5.886;2023-02-14T11:52:08;103153.09;;;19.03;37.59
62710;BME280;48770;51.624;5.886;2023-02-14T11:54:40;103155.28;;;19.06;37.70
62710;BME280;48770;51.624;5.886;2023-02-14T11:57:34;103150.56;;;19.07;37.66
62710;BME280;48770;51.624;5.886;2023-02-14T12:00:10;103142.78;;;19.09;37.65
62710;BME280;48770;51.624;5.886;2023-02-14T12:02:42;103138.63;;;19.12;37.77
62710;BME280;48770;51.624;5.886;2023-02-14T12:05:22;103132.50;;;19.15;37.52
62710;BME280;48770;51.624;5.886;2023-02-14T12:07:53;103124.44;;;19.18;37.45
62710;BME280;48770;51.624;5.886;2023-02-14T12:10:25;103130.22;;;19.22;37.57
62710;BME280;48770;51.624;5.886;2023-02-14T12:13:01;103124.13;;;19.25;37.27
62710;BME280;48770;51.624;5.886;2023-02-14T12:15:48;103120.50;;;19.29;37.59
62710;BME280;48770;51.624;5.886;2023-02-14T12:18:33;103118.28;;;19.31;37.55
62710;BME280;48770;51.624;5.886;2023-02-14T12:21:12;103115.75;;;19.35;37.47
62710;BME280;48770;51.624;5.886;2023-02-14T12:24:01;103101.00;;;19.39;37.42
62710;BME280;48770;51.624;5.886;2023-02-14T12:26:42;103101.81;;;19.45;37.31
62710;BME280;48770;51.624;5.886;2023-02-14T12:29:24;103099.81;;;19.51;37.37
62710;BME280;48770;51.624;5.886;2023-02-14T12:31:55;103095.41;;;19.55;37.21
62710;BME280;48770;51.624;5.886;2023-02-14T12:34:23;103090.63;;;19.60;37.31
62710;BME280;48770;51.624;5.886;2023-02-14T12:37:12;103093.66;;;19.64;37.11
62710;BME280;48770;51.624;5.886;2023-02-14T12:45:14;103075.50;;;19.77;36.96
62710;BME280;48770;51.624;5.886;2023-02-14T12:53:05;103066.31;;;19.81;37.00
62710;BME280;48770;51.624;5.886;2023-02-14T12:58:23;103065.19;;;19.82;36.88
62710;BME280;48770;51.624;5.886;2023-02-14T13:01:25;103059.13;;;19.80;36.95
62710;BME280;48770;51.624;5.886;2023-02-14T13:06:53;103045.75;;;19.82;37.01
62710;BME280;48770;51.624;5.886;2023-02-14T13:18:10;103039.63;;;19.85;37.14
62710;BME280;48770;51.624;5.886;2023-02-14T13:23:37;103023.50;;;19.87;36.79
62710;BME280;48770;51.624;5.886;2023-02-14T13:26:26;103020.19;;;19.85;37.28
62710;BME280;48770;51.624;5.886;2023-02-14T13:28:57;103023.50;;;19.87;36.96
62710;BME280;48770;51.624;5.886;2023-02-14T13:31:25;103024.84;;;19.90;36.97
62710;BME280;48770;51.624;5.886;2023-02-14T13:33:55;103024.84;;;19.90;37.08
62710;BME280;48770;51.624;5.886;2023-02-14T13:36:21;103018.47;;;19.89;36.99
62710;BME280;48770;51.624;5.886;2023-02-14T13:38:53;103011.81;;;19.90;37.07
62710;BME280;48770;51.624;5.886;2023-02-14T13:41:20;103014.59;;;19.90;37.05
62710;BME280;48770;51.624;5.886;2023-02-14T13:43:54;103007.38;;;19.89;37.19
62710;BME280;48770;51.624;5.886;2023-02-14T13:49:24;103008.50;;;19.88;37.30
62710;BME280;48770;51.624;5.886;2023-02-14T13:51:53;102997.09;;;19.90;37.01
62710;BME280;48770;51.624;5.886;2023-02-14T13:57:27;103005.72;;;19.88;37.12
62710;BME280;48770;51.624;5.886;2023-02-14T14:02:43;102998.75;;;19.91;37.32
62710;BME280;48770;51.624;5.886;2023-02-14T14:14:02;102987.88;;;19.94;37.12
62710;BME280;48770;51.624;5.886;2023-02-14T14:16:33;102983.16;;;19.95;37.09
62710;BME280;48770;51.624;5.886;2023-02-14T14:19:03;102978.97;;;19.97;37.11
62710;BME280;48770;51.624;5.886;2023-02-14T14:21:37;102987.00;;;19.99;37.07
62710;BME280;48770;51.624;5.886;2023-02-14T14:24:26;102982.84;;;19.96;36.88
62710;BME280;48770;51.624;5.886;2023-02-14T14:26:59;102977.25;;;20.01;37.21
62710;BME280;48770;51.624;5.886;2023-02-14T14:29:38;102978.06;;;20.02;37.11
62710;BME280;48770;51.624;5.886;2023-02-14T14:32:18;102968.59;;;20.03;37.07
62710;BME280;48770;51.624;5.886;2023-02-14T14:35:04;102966.66;;;20.03;37.18
62710;BME280;48770;51.624;5.886;2023-02-14T14:37:34;102966.41;;;20.05;36.96
62710;BME280;48770;51.624;5.886;2023-02-14T14:40:04;102961.38;;;20.07;37.18
62710;BME280;48770;51.624;5.886;2023-02-14T14:42:34;102951.91;;;20.08;36.93
62710;BME280;48770;51.624;5.886;2023-02-14T14:45:07;102958.00;;;20.10;37.00
62710;BME280;48770;51.624;5.886;2023-02-14T14:47:43;102959.66;;;20.11;36.88
62710;BME280;48770;51.624;5.886;2023-02-14T14:50:25;102961.31;;;20.12;37.15
62710;BME280;48770;51.624;5.886;2023-02-14T14:52:56;102953.81;;;20.13;37.02
62710;BME280;48770;51.624;5.886;2023-02-14T14:55:26;102955.97;;;20.16;37.09
62710;BME280;48770;51.624;5.886;2023-02-14T14:57:57;102953.72;;;20.18;36.68
62710;BME280;48770;51.624;5.886;2023-02-14T15:00:23;102964.78;;;20.23;36.84